Faust — SLKQ — position and weather

sailwx.info

Track history (hours):
 
Tides and Currents Weather Stations Pressure Air Temp Water Temp Dewpoint Dewpoint Depression Visibility Wind Speed Wind Dir Waves Ship Positions

Faust

Last reported at 2014-Jul-24 10:33 UTC. Time now 2014-Jul-24 10:40 UTC.
Position N 53°07' E 004°19'.

Length 227.8 m; beam 32.3 m; draft 9.5 m.

Type: Cargo ship. MMSI: 266260000.

Date/timePositionNaut miles runAvg speedWind from/ knotsBaromVisibWave heightAir tempDewpointWater temp
2014-Jul-24 10:33N 53°07' E 004°19'1716.5
2014-Jul-24 09:34N 53°22' E 004°32'1515.3
2014-Jul-24 08:34N 53°31' E 004°53'1615.9
2014-Jul-24 07:33N 53°37' E 005°18'1514.9
2014-Jul-24 06:33N 53°42' E 005°42'1514.6
2014-Jul-24 05:33N 53°47' E 006°05'1514.7
2014-Jul-24 04:34N 53°51' E 006°29'1515.4
2014-Jul-24 03:33N 53°54' E 006°55'1616.4
2014-Jul-24 02:33N 53°57' E 007°22'1413.5
2014-Jul-24 01:33N 53°54' E 007°44'1615.9
2014-Jul-24 00:33N 53°48' E 008°09'1717.3
2014-Jul-23 23:33N 53°36' E 008°30'2 2.1
2014-Jul-23 22:34N 53°35' E 008°33'0 0.0
2014-Jul-23 21:33N 53°35' E 008°33'0 0.0
2014-Jul-23 20:33N 53°35' E 008°33'0 0.0
2014-Jul-23 19:33N 53°35' E 008°33'0 0.0
2014-Jul-23 18:33N 53°35' E 008°33'0 0.0
2014-Jul-23 17:33N 53°35' E 008°33'0 0.0
2014-Jul-23 16:33N 53°35' E 008°33'0 0.0
2014-Jul-23 15:33N 53°35' E 008°33'0 0.0
2014-Jul-23 14:33N 53°35' E 008°33'0 0.0
2014-Jul-23 13:33N 53°35' E 008°33'0 0.0
2014-Jul-23 12:33N 53°35' E 008°33'0 0.0
2014-Jul-23 11:33N 53°35' E 008°33'0 0.5
2014-Jul-23 10:33N 53°34' E 008°33'5 4.8
2014-Jul-23 09:34N 53°38' E 008°27'1515.4
2014-Jul-23 08:33N 53°48' E 008°08'1413.6
2014-Jul-23 07:33N 53°54' E 007°47'1 1.4
2014-Jul-23 06:32N 53°55' E 007°48'0 0.0
2014-Jul-23 05:32N 53°55' E 007°48'0 0.0
2014-Jul-23 04:32N 53°55' E 007°48'0 0.1
2014-Jul-23 03:32N 53°55' E 007°47'0 0.0
2014-Jul-23 02:32N 53°55' E 007°47'0 0.0
2014-Jul-23 01:32N 53°55' E 007°47'0 0.0
2014-Jul-23 00:32N 53°55' E 007°47'0 0.0
2014-Jul-22 23:29N 53°55' E 007°47'0 0.0
2014-Jul-22 22:32N 53°55' E 007°47'0 0.0
2014-Jul-22 21:32N 53°55' E 007°47'0 0.0
2014-Jul-22 20:32N 53°55' E 007°48'0 0.0
2014-Jul-22 19:32N 53°55' E 007°47'0 0.0
2014-Jul-22 18:32N 53°55' E 007°48'0 0.0
2014-Jul-22 17:32N 53°55' E 007°48'0 0.0
2014-Jul-22 16:32N 53°55' E 007°48'0 0.0
2014-Jul-22 15:32N 53°55' E 007°48'0 0.0
2014-Jul-22 14:32N 53°55' E 007°47'0 0.0
2014-Jul-22 13:32N 53°55' E 007°48'0 0.0
2014-Jul-22 12:32N 53°55' E 007°47'0 0.0
2014-Jul-22 11:29N 53°55' E 007°47'0 0.0
2014-Jul-22 10:32N 53°55' E 007°47'0 0.0
2014-Jul-22 09:32N 53°55' E 007°47'0 0.0
2014-Jul-22 08:32N 53°55' E 007°47'0 0.0
2014-Jul-22 07:29N 53°55' E 007°47'0 0.0
2014-Jul-22 06:32N 53°55' E 007°47'0 0.0
2014-Jul-22 05:32N 53°55' E 007°47'0 0.0
2014-Jul-22 04:32N 53°55' E 007°47'0 0.0
2014-Jul-22 03:29N 53°55' E 007°47'0 0.0
2014-Jul-22 02:32N 53°55' E 007°47'0 0.0
2014-Jul-22 01:32N 53°55' E 007°47'0 0.0
2014-Jul-22 00:29N 53°55' E 007°47'0 0.0
2014-Jul-21 23:29N 53°55' E 007°47'0 0.0
2014-Jul-21 22:32N 53°55' E 007°47'0 0.0
2014-Jul-21 21:32N 53°55' E 007°47'0 0.0
2014-Jul-21 20:32N 53°55' E 007°47'0 0.1
2014-Jul-21 20:17N 53°55' E 007°47'0 0.0
2014-Jul-21 19:32N 53°55' E 007°47'0 0.0
2014-Jul-21 18:32N 53°55' E 007°47'0 0.0
2014-Jul-21 17:32N 53°55' E 007°47'0 0.0
2014-Jul-21 16:32N 53°55' E 007°47'0 0.0
2014-Jul-21 15:32N 53°55' E 007°47'2 1.7
2014-Jul-21 14:32N 53°54' E 007°46'2713.4
2014-Jul-21 12:33N 53°50' E 007°01'1413.9
2014-Jul-21 11:32N 53°47' E 006°38'1313.4
2014-Jul-21 10:34N 53°44' E 006°16'1212.5
2014-Jul-21 09:34N 53°40' E 005°56'1312.5
2014-Jul-21 08:33N 53°36' E 005°36'1111.4
2014-Jul-21 07:34N 53°32' E 005°18'10 9.9
2014-Jul-21 06:33N 53°29' E 005°02'1212.3
2014-Jul-21 05:34N 53°24' E 004°43'1312.2
2014-Jul-21 04:30N 53°12' E 004°34'1112.3
2014-Jul-21 03:33N 53°02' E 004°24'1312.6
2014-Jul-21 02:33N 52°51' E 004°15'1212.6
2014-Jul-21 01:33N 52°41' E 004°01'1313.3
2014-Jul-21 00:33N 52°32' E 003°46'1413.7
2014-Jul-20 23:33N 52°23' E 003°30'1514.3
2014-Jul-20 22:28N 52°12' E 003°12'1414.4
2014-Jul-20 21:32N 52°00' E 002°60'1413.8
2014-Jul-20 20:33N 51°48' E 003°09'1212.2
2014-Jul-20 19:33N 51°36' E 003°10'1211.6
2014-Jul-20 18:32N 51°24' E 003°08'1414.2
2014-Jul-20 17:33N 51°25' E 003°30'8 8.2
2014-Jul-20 16:33N 51°23' E 003°43'1111.1
2014-Jul-20 15:33N 51°26' E 003°60'1111.5
2014-Jul-20 14:34N 51°21' E 004°16'5 4.8
2014-Jul-20 13:33N 51°16' E 004°17'1 0.9
2014-Jul-20 12:33N 51°16' E 004°15'1 1.5
2014-Jul-20 11:33N 51°16' E 004°13'0 0.0
2014-Jul-20 10:31N 51°16' E 004°13'0 0.0
2014-Jul-20 09:31N 51°16' E 004°13'0 0.0
2014-Jul-20 08:31N 51°16' E 004°13'0 0.0
2014-Jul-20 07:31N 51°16' E 004°13'0 0.0
2014-Jul-20 06:31N 51°16' E 004°13'0 0.0
2014-Jul-20 05:31N 51°16' E 004°13'0 0.0
2014-Jul-20 04:31N 51°16' E 004°13'0 0.0
2014-Jul-20 03:31N 51°16' E 004°13'0 0.0
2014-Jul-20 02:31N 51°16' E 004°13'0 0.0
2014-Jul-20 01:31N 51°16' E 004°13'0 0.0
2014-Jul-20 00:31N 51°16' E 004°13'0 0.0
2014-Jul-19 23:31N 51°16' E 004°13'0 0.0
2014-Jul-19 22:31N 51°16' E 004°13'0 0.0
2014-Jul-19 21:31N 51°16' E 004°13'0 0.0
2014-Jul-19 20:28N 51°16' E 004°13'0 0.4
2014-Jul-19 19:34N 51°17' E 004°13'2 2.2
2014-Jul-19 18:34N 51°16' E 004°17'5 4.5
2014-Jul-19 17:34N 51°20' E 004°16'1010.2
2014-Jul-19 16:34N 51°25' E 004°02'1211.5
2014-Jul-19 15:33N 51°22' E 003°44'8 8.4
2014-Jul-19 14:33N 51°25' E 003°31'1111.2
2014-Jul-19 13:33N 51°24' E 003°13'1110.7
2014-Jul-19 12:33N 51°22' E 002°56'9 9.3
2014-Jul-19 11:33N 51°22' E 002°41'4 4.4
2014-Jul-19 10:33N 51°22' E 002°34'10 9.7
2014-Jul-19 09:33N 51°19' E 002°20'1414.0
2014-Jul-19 08:33N 51°12' E 002°00'1616.0
2014-Jul-19 07:33N 51°04' E 001°38'1817.6
2014-Jul-19 06:33N 50°48' E 001°27'2017.1
2014-Jul-19 05:24N 50°33' E 001°07'1416.4
2014-Jul-19 04:33N 50°27' E 000°47'1716.9
2014-Jul-19 03:33N 50°22' E 000°22'1817.5
2014-Jul-19 02:31N 50°18' W 000°06'2618.3
2014-Jul-19 01:05N 50°13' W 000°46'1019.1
2014-Jul-19 00:33N 50°11' W 001°01'2419.0
2014-Jul-18 23:16N 50°03' W 001°38'16512.9
2014-Jul-18 10:29N 50°25' W 005°53'1414.9
2014-Jul-18 09:32N 50°34' W 005°36'1514.4
2014-Jul-18 08:29N 50°43' W 005°18'8514.3
2014-Jul-18 02:33N 51°21' W 003°16'1515.2
2014-Jul-18 01:33N 51°28' W 002°55'7 7.2
2014-Jul-18 00:33N 51°30' W 002°44'0 0.5
2014-Jul-17 23:34N 51°30' W 002°43'0 0.0
2014-Jul-17 22:33N 51°30' W 002°43'0 0.0
2014-Jul-17 21:33N 51°30' W 002°43'0 0.0
2014-Jul-17 20:33N 51°30' W 002°43'0 0.0
2014-Jul-17 19:33N 51°30' W 002°43'0 0.0
2014-Jul-17 18:33N 51°30' W 002°43'0 0.0
2014-Jul-17 17:33N 51°30' W 002°43'0 0.0
2014-Jul-17 16:33N 51°30' W 002°43'0 0.0
2014-Jul-17 15:33N 51°30' W 002°43'0 0.0
2014-Jul-17 14:33N 51°30' W 002°43'0 0.0
2014-Jul-17 13:33N 51°30' W 002°43'0 0.0
2014-Jul-17 12:33N 51°30' W 002°43'0 0.4
2014-Jul-17 11:33N 51°30' W 002°43'0 0.3
2014-Jul-17 10:33N 51°30' W 002°44'1110.8
2014-Jul-17 09:33N 51°26' W 003°00'1414.2
2014-Jul-17 08:33N 51°21' W 003°21'70 9.4
2014-Jul-17 01:11N 50°50' W 005°01'812.8
2014-Jul-17 00:33N 50°45' W 005°10'1312.8
2014-Jul-16 23:33N 50°37' W 005°26'1313.2
2014-Jul-16 22:33N 50°28' W 005°41'55815.9
2014-Jul-15 11:32N 41°37' W 009°49'1615.4
2014-Jul-15 10:29N 41°20' W 009°49'1415.4
2014-Jul-15 09:33N 41°06' W 009°49'1616.1
2014-Jul-15 08:33N 40°50' W 009°50'8716.3
2014-Jul-15 03:14N 39°23' W 009°51'1116.5
2014-Jul-15 02:33N 39°12' W 009°51'1716.6
2014-Jul-15 01:32N 38°55' W 009°52'1816.5
2014-Jul-15 00:27N 38°37' W 009°50'1516.1
2014-Jul-14 23:30N 38°22' W 009°46'1516.0
2014-Jul-14 22:33N 38°07' W 009°42'1615.8
2014-Jul-14 21:33N 37°52' W 009°38'1515.3
2014-Jul-14 20:33N 37°37' W 009°34'1615.5
2014-Jul-14 19:33N 37°22' W 009°29'1616.2
2014-Jul-14 18:33N 37°06' W 009°24'1616.0
2014-Jul-14 17:33N 36°51' W 009°18'1615.5
2014-Jul-14 16:33N 36°43' W 009°02'1616.0
2014-Jul-14 15:33N 36°38' W 008°43'1616.0
2014-Jul-14 14:34N 36°33' W 008°24'1616.4
2014-Jul-14 13:33N 36°28' W 008°04'1716.7
2014-Jul-14 12:34N 36°22' W 007°45'1717.4
2014-Jul-14 11:33N 36°17' W 007°24'  
Track history (hours):
 
Tides and Currents Weather Stations Pressure Air Temp Water Temp Dewpoint Dewpoint Depression Visibility Wind Speed Wind Dir Waves Ship Positions

Faust

Last reported at 2014-Jul-24 10:33 UTC. Time now 2014-Jul-24 10:40 UTC.
Position N 53°07' E 004°19'.

Length 227.8 m; beam 32.3 m; draft 9.5 m.

Type: Cargo ship. MMSI: 266260000.

Date/timePositionNaut miles runAvg speedWind from/ knotsBaromVisibWave heightAir tempDewpointWater temp
2014-Jul-24 10:33N 53°07' E 004°19'1716.5
2014-Jul-24 09:34N 53°22' E 004°32'1515.3
2014-Jul-24 08:34N 53°31' E 004°53'1615.9
2014-Jul-24 07:33N 53°37' E 005°18'1514.9
2014-Jul-24 06:33N 53°42' E 005°42'1514.6
2014-Jul-24 05:33N 53°47' E 006°05'1514.7
2014-Jul-24 04:34N 53°51' E 006°29'1515.4
2014-Jul-24 03:33N 53°54' E 006°55'1616.4
2014-Jul-24 02:33N 53°57' E 007°22'1413.5
2014-Jul-24 01:33N 53°54' E 007°44'1615.9
2014-Jul-24 00:33N 53°48' E 008°09'1717.3
2014-Jul-23 23:33N 53°36' E 008°30'2 2.1
2014-Jul-23 22:34N 53°35' E 008°33'0 0.0
2014-Jul-23 21:33N 53°35' E 008°33'0 0.0
2014-Jul-23 20:33N 53°35' E 008°33'0 0.0
2014-Jul-23 19:33N 53°35' E 008°33'0 0.0
2014-Jul-23 18:33N 53°35' E 008°33'0 0.0
2014-Jul-23 17:33N 53°35' E 008°33'0 0.0
2014-Jul-23 16:33N 53°35' E 008°33'0 0.0
2014-Jul-23 15:33N 53°35' E 008°33'0 0.0
2014-Jul-23 14:33N 53°35' E 008°33'0 0.0
2014-Jul-23 13:33N 53°35' E 008°33'0 0.0
2014-Jul-23 12:33N 53°35' E 008°33'0 0.0
2014-Jul-23 11:33N 53°35' E 008°33'0 0.5
2014-Jul-23 10:33N 53°34' E 008°33'5 4.8
2014-Jul-23 09:34N 53°38' E 008°27'1515.4
2014-Jul-23 08:33N 53°48' E 008°08'1413.6
2014-Jul-23 07:33N 53°54' E 007°47'1 1.4
2014-Jul-23 06:32N 53°55' E 007°48'0 0.0
2014-Jul-23 05:32N 53°55' E 007°48'0 0.0
2014-Jul-23 04:32N 53°55' E 007°48'0 0.1
2014-Jul-23 03:32N 53°55' E 007°47'0 0.0
2014-Jul-23 02:32N 53°55' E 007°47'0 0.0
2014-Jul-23 01:32N 53°55' E 007°47'0 0.0
2014-Jul-23 00:32N 53°55' E 007°47'0 0.0
2014-Jul-22 23:29N 53°55' E 007°47'0 0.0
2014-Jul-22 22:32N 53°55' E 007°47'0 0.0
2014-Jul-22 21:32N 53°55' E 007°47'0 0.0
2014-Jul-22 20:32N 53°55' E 007°48'0 0.0
2014-Jul-22 19:32N 53°55' E 007°47'0 0.0
2014-Jul-22 18:32N 53°55' E 007°48'0 0.0
2014-Jul-22 17:32N 53°55' E 007°48'0 0.0
2014-Jul-22 16:32N 53°55' E 007°48'0 0.0
2014-Jul-22 15:32N 53°55' E 007°48'0 0.0
2014-Jul-22 14:32N 53°55' E 007°47'0 0.0
2014-Jul-22 13:32N 53°55' E 007°48'0 0.0
2014-Jul-22 12:32N 53°55' E 007°47'0 0.0
2014-Jul-22 11:29N 53°55' E 007°47'0 0.0
2014-Jul-22 10:32N 53°55' E 007°47'0 0.0
2014-Jul-22 09:32N 53°55' E 007°47'0 0.0
2014-Jul-22 08:32N 53°55' E 007°47'0 0.0
2014-Jul-22 07:29N 53°55' E 007°47'0 0.0
2014-Jul-22 06:32N 53°55' E 007°47'0 0.0
2014-Jul-22 05:32N 53°55' E 007°47'0 0.0
2014-Jul-22 04:32N 53°55' E 007°47'0 0.0
2014-Jul-22 03:29N 53°55' E 007°47'0 0.0
2014-Jul-22 02:32N 53°55' E 007°47'0 0.0
2014-Jul-22 01:32N 53°55' E 007°47'0 0.0
2014-Jul-22 00:29N 53°55' E 007°47'0 0.0
2014-Jul-21 23:29N 53°55' E 007°47'0 0.0
2014-Jul-21 22:32N 53°55' E 007°47'0 0.0
2014-Jul-21 21:32N 53°55' E 007°47'0 0.0
2014-Jul-21 20:32N 53°55' E 007°47'0 0.1
2014-Jul-21 20:17N 53°55' E 007°47'0 0.0
2014-Jul-21 19:32N 53°55' E 007°47'0 0.0
2014-Jul-21 18:32N 53°55' E 007°47'0 0.0
2014-Jul-21 17:32N 53°55' E 007°47'0 0.0
2014-Jul-21 16:32N 53°55' E 007°47'0 0.0
2014-Jul-21 15:32N 53°55' E 007°47'2 1.7
2014-Jul-21 14:32N 53°54' E 007°46'2713.4
2014-Jul-21 12:33N 53°50' E 007°01'1413.9
2014-Jul-21 11:32N 53°47' E 006°38'1313.4
2014-Jul-21 10:34N 53°44' E 006°16'1212.5
2014-Jul-21 09:34N 53°40' E 005°56'1312.5
2014-Jul-21 08:33N 53°36' E 005°36'1111.4
2014-Jul-21 07:34N 53°32' E 005°18'10 9.9
2014-Jul-21 06:33N 53°29' E 005°02'1212.3
2014-Jul-21 05:34N 53°24' E 004°43'1312.2
2014-Jul-21 04:30N 53°12' E 004°34'1112.3
2014-Jul-21 03:33N 53°02' E 004°24'1312.6
2014-Jul-21 02:33N 52°51' E 004°15'1212.6
2014-Jul-21 01:33N 52°41' E 004°01'1313.3
2014-Jul-21 00:33N 52°32' E 003°46'1413.7
2014-Jul-20 23:33N 52°23' E 003°30'1514.3
2014-Jul-20 22:28N 52°12' E 003°12'1414.4
2014-Jul-20 21:32N 52°00' E 002°60'1413.8
2014-Jul-20 20:33N 51°48' E 003°09'1212.2
2014-Jul-20 19:33N 51°36' E 003°10'1211.6
2014-Jul-20 18:32N 51°24' E 003°08'1414.2
2014-Jul-20 17:33N 51°25' E 003°30'8 8.2
2014-Jul-20 16:33N 51°23' E 003°43'1111.1
2014-Jul-20 15:33N 51°26' E 003°60'1111.5
2014-Jul-20 14:34N 51°21' E 004°16'5 4.8
2014-Jul-20 13:33N 51°16' E 004°17'1 0.9
2014-Jul-20 12:33N 51°16' E 004°15'1 1.5
2014-Jul-20 11:33N 51°16' E 004°13'0 0.0
2014-Jul-20 10:31N 51°16' E 004°13'0 0.0
2014-Jul-20 09:31N 51°16' E 004°13'0 0.0
2014-Jul-20 08:31N 51°16' E 004°13'0 0.0
2014-Jul-20 07:31N 51°16' E 004°13'0 0.0
2014-Jul-20 06:31N 51°16' E 004°13'0 0.0
2014-Jul-20 05:31N 51°16' E 004°13'0 0.0
2014-Jul-20 04:31N 51°16' E 004°13'0 0.0
2014-Jul-20 03:31N 51°16' E 004°13'0 0.0
2014-Jul-20 02:31N 51°16' E 004°13'0 0.0
2014-Jul-20 01:31N 51°16' E 004°13'0 0.0
2014-Jul-20 00:31N 51°16' E 004°13'0 0.0
2014-Jul-19 23:31N 51°16' E 004°13'0 0.0
2014-Jul-19 22:31N 51°16' E 004°13'0 0.0
2014-Jul-19 21:31N 51°16' E 004°13'0 0.0
2014-Jul-19 20:28N 51°16' E 004°13'0 0.4
2014-Jul-19 19:34N 51°17' E 004°13'2 2.2
2014-Jul-19 18:34N 51°16' E 004°17'5 4.5
2014-Jul-19 17:34N 51°20' E 004°16'1010.2
2014-Jul-19 16:34N 51°25' E 004°02'1211.5
2014-Jul-19 15:33N 51°22' E 003°44'8 8.4
2014-Jul-19 14:33N 51°25' E 003°31'1111.2
2014-Jul-19 13:33N 51°24' E 003°13'1110.7
2014-Jul-19 12:33N 51°22' E 002°56'9 9.3
2014-Jul-19 11:33N 51°22' E 002°41'4 4.4
2014-Jul-19 10:33N 51°22' E 002°34'10 9.7
2014-Jul-19 09:33N 51°19' E 002°20'1414.0
2014-Jul-19 08:33N 51°12' E 002°00'1616.0
2014-Jul-19 07:33N 51°04' E 001°38'1817.6
2014-Jul-19 06:33N 50°48' E 001°27'2017.1
2014-Jul-19 05:24N 50°33' E 001°07'1416.4
2014-Jul-19 04:33N 50°27' E 000°47'1716.9
2014-Jul-19 03:33N 50°22' E 000°22'1817.5
2014-Jul-19 02:31N 50°18' W 000°06'2618.3
2014-Jul-19 01:05N 50°13' W 000°46'1019.1
2014-Jul-19 00:33N 50°11' W 001°01'2419.0
2014-Jul-18 23:16N 50°03' W 001°38'16512.9
2014-Jul-18 10:29N 50°25' W 005°53'1414.9
2014-Jul-18 09:32N 50°34' W 005°36'1514.4
2014-Jul-18 08:29N 50°43' W 005°18'8514.3
2014-Jul-18 02:33N 51°21' W 003°16'1515.2
2014-Jul-18 01:33N 51°28' W 002°55'7 7.2
2014-Jul-18 00:33N 51°30' W 002°44'0 0.5
2014-Jul-17 23:34N 51°30' W 002°43'0 0.0
2014-Jul-17 22:33N 51°30' W 002°43'0 0.0
2014-Jul-17 21:33N 51°30' W 002°43'0 0.0
2014-Jul-17 20:33N 51°30' W 002°43'0 0.0
2014-Jul-17 19:33N 51°30' W 002°43'0 0.0
2014-Jul-17 18:33N 51°30' W 002°43'0 0.0
2014-Jul-17 17:33N 51°30' W 002°43'0 0.0
2014-Jul-17 16:33N 51°30' W 002°43'0 0.0
2014-Jul-17 15:33N 51°30' W 002°43'0 0.0
2014-Jul-17 14:33N 51°30' W 002°43'0 0.0
2014-Jul-17 13:33N 51°30' W 002°43'0 0.0
2014-Jul-17 12:33N 51°30' W 002°43'0 0.4
2014-Jul-17 11:33N 51°30' W 002°43'0 0.3
2014-Jul-17 10:33N 51°30' W 002°44'1110.8
2014-Jul-17 09:33N 51°26' W 003°00'1414.2
2014-Jul-17 08:33N 51°21' W 003°21'70 9.4
2014-Jul-17 01:11N 50°50' W 005°01'812.8
2014-Jul-17 00:33N 50°45' W 005°10'1312.8
2014-Jul-16 23:33N 50°37' W 005°26'1313.2
2014-Jul-16 22:33N 50°28' W 005°41'55815.9
2014-Jul-15 11:32N 41°37' W 009°49'1615.4
2014-Jul-15 10:29N 41°20' W 009°49'1415.4
2014-Jul-15 09:33N 41°06' W 009°49'1616.1
2014-Jul-15 08:33N 40°50' W 009°50'8716.3
2014-Jul-15 03:14N 39°23' W 009°51'1116.5
2014-Jul-15 02:33N 39°12' W 009°51'1716.6
2014-Jul-15 01:32N 38°55' W 009°52'1816.5
2014-Jul-15 00:27N 38°37' W 009°50'1516.1
2014-Jul-14 23:30N 38°22' W 009°46'1516.0
2014-Jul-14 22:33N 38°07' W 009°42'1615.8
2014-Jul-14 21:33N 37°52' W 009°38'1515.3
2014-Jul-14 20:33N 37°37' W 009°34'1615.5
2014-Jul-14 19:33N 37°22' W 009°29'1616.2
2014-Jul-14 18:33N 37°06' W 009°24'1616.0
2014-Jul-14 17:33N 36°51' W 009°18'1615.5
2014-Jul-14 16:33N 36°43' W 009°02'1616.0
2014-Jul-14 15:33N 36°38' W 008°43'1616.0
2014-Jul-14 14:34N 36°33' W 008°24'1616.4
2014-Jul-14 13:33N 36°28' W 008°04'1716.7
2014-Jul-14 12:34N 36°22' W 007°45'1717.4
2014-Jul-14 11:33N 36°17' W 007°24'  

Dump ship's entire track history